Weather at Warren Farm Airstrip

Public forecast

Using degrees Celsius for public forecast. Weather courtesy of forecast.io.

Closest aviation weather report (METAR) to Warren Farm Airstrip

Closest report is Bristol Airport, 5.6 nm (10.3 km) N. Retrieved 2021/09/25 23:20 UTC (0 seconds ago):

EGGD 252320Z AUTO 17007KT 9999 NCD 14/13 Q1012

Closest aviation forecast (TAF) to Warren Farm Airstrip

Closest forecast is Bristol Airport, 5.6 nm (10.3 km) N. Retrieved 2021/09/25 18:00 UTC (5 hours ago):

TAF EGGD 251659Z 2518/2618 VRB04KT 9999 FEW008 SCT022 TEMPO 2518/2611 BKN012 PROB30 TEMPO 2518/2522 6000 -DZ BKN008 PROB40 TEMPO 2522/2608 6000 BKN006 BECMG 2606/2609 20010KT